sensor_id;sensor_type;location;lat;lon;timestamp;pressure;altitude;pressure_sealevel;temperature;humidity
77537;BME280;67783;51.656;16.106;2023-04-03T00:02:19;102803.65;;;3.51;54.90
77537;BME280;67783;51.656;16.106;2023-04-03T00:05:20;102807.19;;;3.51;55.16
77537;BME280;67783;51.656;16.106;2023-04-03T00:08:22;102808.11;;;3.47;55.18
77537;BME280;67783;51.656;16.106;2023-04-03T00:11:24;102802.80;;;3.46;55.27
77537;BME280;67783;51.656;16.106;2023-04-03T00:14:26;102798.39;;;3.45;55.32
77537;BME280;67783;51.656;16.106;2023-04-03T00:17:31;102809.03;;;3.43;55.20
77537;BME280;67783;51.656;16.106;2023-04-03T00:20:33;102810.77;;;3.44;55.44
77537;BME280;67783;51.656;16.106;2023-04-03T00:23:35;102809.03;;;3.40;55.46
77537;BME280;67783;51.656;16.106;2023-04-03T00:26:37;102814.34;;;3.40;55.56
77537;BME280;67783;51.656;16.106;2023-04-03T00:29:38;102806.43;;;3.36;55.60
77537;BME280;67783;51.656;16.106;2023-04-03T00:32:40;102817.92;;;3.36;55.66
77537;BME280;67783;51.656;16.106;2023-04-03T00:35:42;102817.06;;;3.33;55.75
77537;BME280;67783;51.656;16.106;2023-04-03T00:38:47;102816.23;;;3.28;55.85
77537;BME280;67783;51.656;16.106;2023-04-03T00:41:49;102814.50;;;3.25;55.88
77537;BME280;67783;51.656;16.106;2023-04-03T00:48:20;102824.29;;;3.18;56.23
77537;BME280;67783;51.656;16.106;2023-04-03T00:51:24;102823.40;;;3.15;56.14
77537;BME280;67783;51.656;16.106;2023-04-03T00:54:27;102829.62;;;3.11;56.29
77537;BME280;67783;51.656;16.106;2023-04-03T00:57:30;102825.23;;;3.10;56.28
77537;BME280;67783;51.656;16.106;2023-04-03T01:00:32;102834.09;;;3.06;56.43
77537;BME280;67783;51.656;16.106;2023-04-03T01:03:37;102835.87;;;3.04;56.75
77537;BME280;67783;51.656;16.106;2023-04-03T01:06:39;102828.81;;;3.03;56.54
77537;BME280;67783;51.656;16.106;2023-04-03T01:09:41;102833.25;;;2.99;56.83
77537;BME280;67783;51.656;16.106;2023-04-03T01:12:46;102836.78;;;2.98;56.68
77537;BME280;67783;51.656;16.106;2023-04-03T01:15:48;102839.50;;;2.94;56.85
77537;BME280;67783;51.656;16.106;2023-04-03T01:18:59;102845.66;;;2.91;57.39
77537;BME280;67783;51.656;16.106;2023-04-03T01:22:12;102846.55;;;2.92;56.92
77537;BME280;67783;51.656;16.106;2023-04-03T01:25:14;102850.13;;;2.89;57.08
77537;BME280;67783;51.656;16.106;2023-04-03T01:28:27;102842.20;;;2.85;57.66
77537;BME280;67783;51.656;16.106;2023-04-03T01:34:42;102842.23;;;2.78;57.34
77537;BME280;67783;51.656;16.106;2023-04-03T01:37:51;102851.98;;;2.76;58.03
77537;BME280;67783;51.656;16.106;2023-04-03T01:40:53;102848.44;;;2.76;57.44
77537;BME280;67783;51.656;16.106;2023-04-03T01:43:54;102853.76;;;2.71;57.80
77537;BME280;67783;51.656;16.106;2023-04-03T01:46:56;102855.53;;;2.72;57.59
77537;BME280;67783;51.656;16.106;2023-04-03T01:49:58;102856.42;;;2.67;57.80
77537;BME280;67783;51.656;16.106;2023-04-03T01:53:00;102853.78;;;2.67;57.68
77537;BME280;67783;51.656;16.106;2023-04-03T01:56:01;102858.23;;;2.63;57.86
77537;BME280;67783;51.656;16.106;2023-04-03T01:59:06;102857.34;;;2.61;58.68
77537;BME280;67783;51.656;16.106;2023-04-03T02:02:08;102868.81;;;2.62;57.91
77537;BME280;67783;51.656;16.106;2023-04-03T02:05:09;102867.06;;;2.58;58.37
77537;BME280;67783;51.656;16.106;2023-04-03T02:08:11;102870.61;;;2.58;58.02
77537;BME280;67783;51.656;16.106;2023-04-03T02:11:14;102867.09;;;2.53;58.29
77537;BME280;67783;51.656;16.106;2023-04-03T02:14:27;102869.75;;;2.50;59.15
77537;BME280;67783;51.656;16.106;2023-04-03T02:17:29;102869.75;;;2.50;58.31
77537;BME280;67783;51.656;16.106;2023-04-03T02:20:30;102875.09;;;2.44;58.81
77537;BME280;67783;51.656;16.106;2023-04-03T02:23:33;102870.69;;;2.43;58.41
77537;BME280;67783;51.656;16.106;2023-04-03T02:26:37;102872.44;;;2.41;58.69
77537;BME280;67783;51.656;16.106;2023-04-03T02:29:48;102877.76;;;2.40;59.47
77537;BME280;67783;51.656;16.106;2023-04-03T02:32:50;102877.76;;;2.38;58.65
77537;BME280;67783;51.656;16.106;2023-04-03T02:35:55;102877.78;;;2.35;59.14
77537;BME280;67783;51.656;16.106;2023-04-03T02:38:57;102883.08;;;2.35;58.73
77537;BME280;67783;51.656;16.106;2023-04-03T02:41:59;102879.56;;;2.31;58.97
77537;BME280;67783;51.656;16.106;2023-04-03T02:45:09;102886.63;;;2.31;59.79
77537;BME280;67783;51.656;16.106;2023-04-03T02:48:11;102880.45;;;2.30;58.96
77537;BME280;67783;51.656;16.106;2023-04-03T02:51:13;102886.61;;;2.28;59.45
77537;BME280;67783;51.656;16.106;2023-04-03T02:54:15;102890.14;;;2.28;58.99
77537;BME280;67783;51.656;16.106;2023-04-03T02:57:16;102889.28;;;2.26;59.29
77537;BME280;67783;51.656;16.106;2023-04-03T03:00:19;102894.57;;;2.26;59.05
77537;BME280;67783;51.656;16.106;2023-04-03T03:03:21;102898.09;;;2.24;59.30
77537;BME280;67783;51.656;16.106;2023-04-03T03:06:26;102897.23;;;2.23;60.25
77537;BME280;67783;51.656;16.106;2023-04-03T03:09:27;102896.35;;;2.23;59.29
77537;BME280;67783;51.656;16.106;2023-04-03T03:12:30;102898.11;;;2.21;59.81
77537;BME280;67783;51.656;16.106;2023-04-03T03:15:32;102896.36;;;2.18;59.38
77537;BME280;67783;51.656;16.106;2023-04-03T03:18:34;102905.17;;;2.16;59.68
77537;BME280;67783;51.656;16.106;2023-04-03T03:21:46;102906.96;;;2.14;60.72
77537;BME280;67783;51.656;16.106;2023-04-03T03:24:48;102901.67;;;2.14;59.58
77537;BME280;67783;51.656;16.106;2023-04-03T03:27:50;102895.51;;;2.09;60.15
77537;BME280;67783;51.656;16.106;2023-04-03T03:30:52;102911.39;;;2.09;59.67
77537;BME280;67783;51.656;16.106;2023-04-03T03:33:53;102906.96;;;2.08;59.99
77537;BME280;67783;51.656;16.106;2023-04-03T03:36:55;102903.45;;;2.06;59.76
77537;BME280;67783;51.656;16.106;2023-04-03T03:39:57;102913.17;;;2.02;60.05
77537;BME280;67783;51.656;16.106;2023-04-03T03:43:02;102909.64;;;2.02;61.02
77537;BME280;67783;51.656;16.106;2023-04-03T03:46:04;102907.01;;;1.99;60.06
77537;BME280;67783;51.656;16.106;2023-04-03T03:49:06;102913.17;;;1.96;60.62
77537;BME280;67783;51.656;16.106;2023-04-03T03:52:08;102912.28;;;1.96;60.10
77537;BME280;67783;51.656;16.106;2023-04-03T03:55:12;102916.71;;;1.94;60.45
77537;BME280;67783;51.656;16.106;2023-04-03T03:58:23;102922.00;;;1.92;61.38
77537;BME280;67783;51.656;16.106;2023-04-03T04:01:25;102916.69;;;1.91;60.35
77537;BME280;67783;51.656;16.106;2023-04-03T04:04:27;102919.36;;;1.89;60.86
77537;BME280;67783;51.656;16.106;2023-04-03T04:07:29;102913.20;;;1.89;60.33
77537;BME280;67783;51.656;16.106;2023-04-03T04:10:30;102926.41;;;1.89;60.65
77537;BME280;67783;51.656;16.106;2023-04-03T04:13:32;102924.65;;;1.88;60.39
77537;BME280;67783;51.656;16.106;2023-04-03T04:16:34;102928.19;;;1.85;60.67
77537;BME280;67783;51.656;16.106;2023-04-03T04:19:39;102933.46;;;1.83;61.82
77537;BME280;67783;51.656;16.106;2023-04-03T04:22:40;102928.17;;;1.83;60.66
77537;BME280;67783;51.656;16.106;2023-04-03T04:25:44;102941.39;;;1.83;61.18
77537;BME280;67783;51.656;16.106;2023-04-03T04:28:46;102946.70;;;1.85;60.64
77537;BME280;67783;51.656;16.106;2023-04-03T04:31:48;102940.52;;;1.84;60.93
77537;BME280;67783;51.656;16.106;2023-04-03T04:35:00;102946.66;;;1.86;62.07
77537;BME280;67783;51.656;16.106;2023-04-03T04:38:02;102941.38;;;1.91;60.79
77537;BME280;67783;51.656;16.106;2023-04-03T04:41:04;102943.14;;;1.95;61.35
77537;BME280;67783;51.656;16.106;2023-04-03T04:44:06;102946.64;;;2.03;60.73
77537;BME280;67783;51.656;16.106;2023-04-03T04:47:08;102951.08;;;2.10;60.92
77537;BME280;67783;51.656;16.106;2023-04-03T04:50:10;102949.27;;;2.20;60.62
77537;BME280;67783;51.656;16.106;2023-04-03T04:53:12;102958.95;;;2.28;60.67
77537;BME280;67783;51.656;16.106;2023-04-03T04:56:17;102958.03;;;2.37;61.37
77537;BME280;67783;51.656;16.106;2023-04-03T04:59:19;102964.17;;;2.50;60.44
77537;BME280;67783;51.656;16.106;2023-04-03T05:02:25;102965.02;;;2.59;60.30
77537;BME280;67783;51.656;16.106;2023-04-03T05:05:27;102964.99;;;2.65;60.67
77537;BME280;67783;51.656;16.106;2023-04-03T05:08:29;102969.38;;;2.77;60.15
77537;BME280;67783;51.656;16.106;2023-04-03T05:11:31;102964.91;;;2.84;60.16
77537;BME280;67783;51.656;16.106;2023-04-03T05:14:33;102961.35;;;2.91;59.93
77537;BME280;67783;51.656;16.106;2023-04-03T05:17:36;102973.68;;;2.95;59.95
77537;BME280;67783;51.656;16.106;2023-04-03T05:20:41;102968.40;;;2.98;60.21
77537;BME280;67783;51.656;16.106;2023-04-03T05:23:44;102971.88;;;3.03;59.81
77537;BME280;67783;51.656;16.106;2023-04-03T05:26:46;102981.59;;;3.05;59.92
77537;BME280;67783;51.656;16.106;2023-04-03T05:29:48;102981.57;;;3.10;59.71
77537;BME280;67783;51.656;16.106;2023-04-03T05:32:49;102984.20;;;3.11;59.69
77537;BME280;67783;51.656;16.106;2023-04-03T05:36:04;102982.44;;;3.12;59.89
77537;BME280;67783;51.656;16.106;2023-04-03T05:39:06;102971.85;;;3.09;59.37
77537;BME280;67783;51.656;16.106;2023-04-03T05:42:07;102993.91;;;3.11;59.84
77537;BME280;67783;51.656;16.106;2023-04-03T05:45:10;102997.45;;;3.14;59.71
77537;BME280;67783;51.656;16.106;2023-04-03T05:48:11;102993.88;;;3.15;59.69
77537;BME280;67783;51.656;16.106;2023-04-03T05:51:24;102997.45;;;3.14;59.98
77537;BME280;67783;51.656;16.106;2023-04-03T05:54:30;102994.77;;;3.16;59.77
77537;BME280;67783;51.656;16.106;2023-04-03T05:57:32;102997.42;;;3.16;59.89
77537;BME280;67783;51.656;16.106;2023-04-03T06:00:33;102993.88;;;3.21;59.72
77537;BME280;67783;51.656;16.106;2023-04-03T06:03:36;102996.48;;;3.23;59.73
77537;BME280;67783;51.656;16.106;2023-04-03T06:06:54;102992.95;;;3.24;59.66
77537;BME280;67783;51.656;16.106;2023-04-03T06:09:57;102997.38;;;3.23;59.48
77537;BME280;67783;51.656;16.106;2023-04-03T06:12:59;103000.07;;;3.16;59.66
77537;BME280;67783;51.656;16.106;2023-04-03T06:16:12;103004.49;;;3.17;60.04
77537;BME280;67783;51.656;16.106;2023-04-03T06:19:17;103010.66;;;3.22;59.62
77537;BME280;67783;51.656;16.106;2023-04-03T06:22:19;103008.89;;;3.21;59.64
77537;BME280;67783;51.656;16.106;2023-04-03T06:25:22;103017.69;;;3.23;59.56
77537;BME280;67783;51.656;16.106;2023-04-03T06:28:24;103010.62;;;3.25;59.64
77537;BME280;67783;51.656;16.106;2023-04-03T06:31:30;103015.02;;;3.28;59.90
77537;BME280;67783;51.656;16.106;2023-04-03T06:34:32;103015.88;;;3.34;59.61
77537;BME280;67783;51.656;16.106;2023-04-03T06:37:34;103022.05;;;3.36;59.59
77537;BME280;67783;51.656;16.106;2023-04-03T06:40:36;103015.80;;;3.45;59.48
77537;BME280;67783;51.656;16.106;2023-04-03T06:43:39;103017.54;;;3.50;59.48
77537;BME280;67783;51.656;16.106;2023-04-03T06:46:51;103017.51;;;3.53;59.20
77537;BME280;67783;51.656;16.106;2023-04-03T06:49:55;103020.10;;;3.62;59.50
77537;BME280;67783;51.656;16.106;2023-04-03T06:52:58;103022.70;;;3.71;59.38
77537;BME280;67783;51.656;16.106;2023-04-03T06:56:01;103030.59;;;3.78;59.13
77537;BME280;67783;51.656;16.106;2023-04-03T06:59:03;103033.24;;;3.81;58.93
77537;BME280;67783;51.656;16.106;2023-04-03T07:02:12;103037.59;;;3.86;58.53
77537;BME280;67783;51.656;16.106;2023-04-03T07:05:14;103026.04;;;3.95;58.90
77537;BME280;67783;51.656;16.106;2023-04-03T07:08:16;103034.81;;;4.04;58.84
77537;BME280;67783;51.656;16.106;2023-04-03T07:11:18;103041.78;;;4.16;58.68
77537;BME280;67783;51.656;16.106;2023-04-03T07:14:21;103040.84;;;4.18;58.24
77537;BME280;67783;51.656;16.106;2023-04-03T07:17:32;103043.43;;;4.29;57.30
77537;BME280;67783;51.656;16.106;2023-04-03T07:20:34;103046.85;;;4.40;58.01
77537;BME280;67783;51.656;16.106;2023-04-03T07:23:37;103051.20;;;4.49;57.32
77537;BME280;67783;51.656;16.106;2023-04-03T07:26:39;103050.17;;;4.63;57.59
77537;BME280;67783;51.656;16.106;2023-04-03T07:29:40;103055.34;;;4.76;57.03
77537;BME280;67783;51.656;16.106;2023-04-03T07:32:53;103055.16;;;4.91;57.13
77537;BME280;67783;51.656;16.106;2023-04-03T07:35:56;103063.88;;;5.02;57.36
77537;BME280;67783;51.656;16.106;2023-04-03T07:38:58;103056.68;;;5.10;56.40
77537;BME280;67783;51.656;16.106;2023-04-03T07:42:01;103070.74;;;5.21;56.49
77537;BME280;67783;51.656;16.106;2023-04-03T07:45:03;103063.61;;;5.23;55.81
77537;BME280;67783;51.656;16.106;2023-04-03T07:48:14;103057.34;;;5.29;53.35
77537;BME280;67783;51.656;16.106;2023-04-03T07:51:17;103059.89;;;5.36;54.93
77537;BME280;67783;51.656;16.106;2023-04-03T07:54:19;103054.56;;;5.36;53.68
77537;BME280;67783;51.656;16.106;2023-04-03T07:57:20;103057.07;;;5.47;54.70
77537;BME280;67783;51.656;16.106;2023-04-03T08:00:22;103024.41;;;5.37;53.99
77537;BME280;67783;51.656;16.106;2023-04-03T08:03:35;103055.21;;;5.53;50.33
77537;BME280;67783;51.656;16.106;2023-04-03T08:06:38;103062.13;;;5.64;52.58
77537;BME280;67783;51.656;16.106;2023-04-03T08:09:39;103053.21;;;5.68;51.52
77537;BME280;67783;51.656;16.106;2023-04-03T08:12:41;103055.63;;;5.87;53.02
77537;BME280;67783;51.656;16.106;2023-04-03T08:15:43;103065.14;;;6.02;51.79
77537;BME280;67783;51.656;16.106;2023-04-03T08:18:55;103056.10;;;6.12;49.01
77537;BME280;67783;51.656;16.106;2023-04-03T08:21:57;103057.59;;;6.28;50.69
77537;BME280;67783;51.656;16.106;2023-04-03T08:25:01;103065.43;;;6.37;50.85
77537;BME280;67783;51.656;16.106;2023-04-03T08:28:03;103059.09;;;6.43;50.91
77537;BME280;67783;51.656;16.106;2023-04-03T08:31:07;103055.59;;;6.41;49.25
77537;BME280;67783;51.656;16.106;2023-04-03T08:34:17;103060.79;;;6.47;46.92
77537;BME280;67783;51.656;16.106;2023-04-03T08:37:19;103049.02;;;6.59;50.10
77537;BME280;67783;51.656;16.106;2023-04-03T08:40:21;103046.03;;;6.75;48.05
77537;BME280;67783;51.656;16.106;2023-04-03T08:43:35;103048.37;;;6.92;49.22
77537;BME280;67783;51.656;16.106;2023-04-03T08:49:57;103063.00;;;7.16;46.53
77537;BME280;67783;51.656;16.106;2023-04-03T08:53:01;103066.65;;;7.12;48.56
77537;BME280;67783;51.656;16.106;2023-04-03T08:56:12;103060.48;;;7.08;48.43
77537;BME280;67783;51.656;16.106;2023-04-03T08:59:31;103066.03;;;6.99;43.75
77537;BME280;67783;51.656;16.106;2023-04-03T09:02:33;103060.79;;;6.93;47.31
77537;BME280;67783;51.656;16.106;2023-04-03T09:15:27;103061.98;;;7.21;46.38
77537;BME280;67783;51.656;16.106;2023-04-03T09:18:35;103056.46;;;7.30;45.26
77537;BME280;67783;51.656;16.106;2023-04-03T09:21:41;103065.36;;;7.29;43.08
77537;BME280;67783;51.656;16.106;2023-04-03T09:24:52;103060.59;;;7.45;46.47
77537;BME280;67783;51.656;16.106;2023-04-03T09:27:58;103060.34;;;7.56;44.16
77537;BME280;67783;51.656;16.106;2023-04-03T09:31:14;103059.05;;;7.73;42.05
77537;BME280;67783;51.656;16.106;2023-04-03T09:34:23;103050.57;;;7.92;44.49
77537;BME280;67783;51.656;16.106;2023-04-03T09:37:37;103054.81;;;8.00;43.79
77537;BME280;67783;51.656;16.106;2023-04-03T09:40:45;103047.66;;;8.02;41.90
77537;BME280;67783;51.656;16.106;2023-04-03T09:43:54;103044.66;;;8.14;45.26
77537;BME280;67783;51.656;16.106;2023-04-03T09:46:57;103049.70;;;8.26;43.19
77537;BME280;67783;51.656;16.106;2023-04-03T09:53:28;103039.15;;;8.56;44.99
77537;BME280;67783;51.656;16.106;2023-04-03T09:56:31;103046.80;;;8.69;44.52
77537;BME280;67783;51.656;16.106;2023-04-03T09:59:39;103041.26;;;8.75;41.24
77537;BME280;67783;51.656;16.106;2023-04-03T10:02:43;103040.47;;;8.72;42.60
77537;BME280;67783;51.656;16.106;2023-04-03T10:05:45;103048.84;;;8.60;43.25
77537;BME280;67783;51.656;16.106;2023-04-03T10:12:09;103036.57;;;8.53;43.80
77537;BME280;67783;51.656;16.106;2023-04-03T10:15:17;103031.01;;;8.60;40.78
77537;BME280;67783;51.656;16.106;2023-04-03T10:24:54;103041.64;;;8.62;40.92
77537;BME280;67783;51.656;16.106;2023-04-03T10:28:07;103035.72;;;8.51;42.36
77537;BME280;67783;51.656;16.106;2023-04-03T10:31:21;103030.49;;;8.46;42.57
77537;BME280;67783;51.656;16.106;2023-04-03T10:34:33;103021.35;;;8.55;40.09
77537;BME280;67783;51.656;16.106;2023-04-03T10:37:49;103029.87;;;8.69;42.22
77537;BME280;67783;51.656;16.106;2023-04-03T10:44:29;103039.09;;;8.57;40.14
77537;BME280;67783;51.656;16.106;2023-04-03T10:47:39;103031.52;;;8.41;38.43
77537;BME280;67783;51.656;16.106;2023-04-03T10:50:50;103028.30;;;8.28;42.67
77537;BME280;67783;51.656;16.106;2023-04-03T10:54:05;103037.37;;;8.21;41.73
77537;BME280;67783;51.656;16.106;2023-04-03T10:57:10;103031.23;;;8.17;40.33
77537;BME280;67783;51.656;16.106;2023-04-03T11:00:18;103023.89;;;8.25;42.39
77537;BME280;67783;51.656;16.106;2023-04-03T11:03:33;103021.02;;;8.34;40.96
77537;BME280;67783;51.656;16.106;2023-04-03T11:06:53;103012.66;;;8.47;40.59
77537;BME280;67783;51.656;16.106;2023-04-03T11:13:18;103019.77;;;8.78;41.55
77537;BME280;67783;51.656;16.106;2023-04-03T11:16:26;103015.21;;;8.82;41.28
77537;BME280;67783;51.656;16.106;2023-04-03T11:19:34;103012.54;;;8.82;36.98
77537;BME280;67783;51.656;16.106;2023-04-03T11:22:42;103022.05;;;8.92;41.56
77537;BME280;67783;51.656;16.106;2023-04-03T11:25:50;103008.55;;;8.97;40.83
77537;BME280;67783;51.656;16.106;2023-04-03T11:28:57;103005.92;;;8.95;38.37
77537;BME280;67783;51.656;16.106;2023-04-03T11:35:15;103006.27;;;8.83;40.54
77537;BME280;67783;51.656;16.106;2023-04-03T11:38:28;103002.95;;;8.75;37.28
77537;BME280;67783;51.656;16.106;2023-04-03T11:41:32;103000.93;;;8.83;40.38
77537;BME280;67783;51.656;16.106;2023-04-03T11:44:38;103003.60;;;8.83;40.08
77537;BME280;67783;51.656;16.106;2023-04-03T11:47:55;103001.71;;;8.87;37.10
77537;BME280;67783;51.656;16.106;2023-04-03T12:00:48;102990.05;;;8.58;38.60
77537;BME280;67783;51.656;16.106;2023-04-03T12:03:58;102997.85;;;8.66;41.46
77537;BME280;67783;51.656;16.106;2023-04-03T12:07:13;102994.05;;;8.74;40.64
77537;BME280;67783;51.656;16.106;2023-04-03T12:10:17;103008.50;;;8.69;37.86
77537;BME280;67783;51.656;16.106;2023-04-03T12:13:19;102999.68;;;8.65;39.77
77537;BME280;67783;51.656;16.106;2023-04-03T12:16:28;102994.36;;;8.64;39.79
77537;BME280;67783;51.656;16.106;2023-04-03T12:19:39;102989.32;;;8.84;36.94
77537;BME280;67783;51.656;16.106;2023-04-03T12:39:33;102971.86;;;9.30;38.94
77537;BME280;67783;51.656;16.106;2023-04-03T12:45:58;102980.25;;;9.47;35.67
77537;BME280;67783;51.656;16.106;2023-04-03T12:48:58;102978.10;;;9.30;39.53
77537;BME280;67783;51.656;16.106;2023-04-03T12:52:04;102981.47;;;9.07;39.10
77537;BME280;67783;51.656;16.106;2023-04-03T12:55:17;102984.52;;;8.95;36.61
77537;BME280;67783;51.656;16.106;2023-04-03T12:58:26;102976.56;;;8.94;39.45
77537;BME280;67783;51.656;16.106;2023-04-03T13:01:28;102969.85;;;9.08;38.47
77537;BME280;67783;51.656;16.106;2023-04-03T13:04:38;102961.40;;;9.22;35.01
77537;BME280;67783;51.656;16.106;2023-04-03T13:07:40;102961.40;;;9.50;38.58
77537;BME280;67783;51.656;16.106;2023-04-03T13:10:52;102955.86;;;9.56;37.62
77537;BME280;67783;51.656;16.106;2023-04-03T13:14:14;102962.80;;;9.61;35.92
77537;BME280;67783;51.656;16.106;2023-04-03T13:17:16;102966.25;;;9.65;38.22
77537;BME280;67783;51.656;16.106;2023-04-03T13:20:28;102959.70;;;9.47;37.18
77537;BME280;67783;51.656;16.106;2023-04-03T13:23:31;102973.28;;;9.41;36.23
77537;BME280;67783;51.656;16.106;2023-04-03T13:26:34;102959.74;;;9.46;37.76
77537;BME280;67783;51.656;16.106;2023-04-03T13:29:37;102964.17;;;9.47;37.28
77537;BME280;67783;51.656;16.106;2023-04-03T13:32:43;102957.55;;;9.58;38.65
77537;BME280;67783;51.656;16.106;2023-04-03T13:35:45;102950.50;;;9.56;38.19
77537;BME280;67783;51.656;16.106;2023-04-03T13:42:15;102963.38;;;9.15;37.87
77537;BME280;67783;51.656;16.106;2023-04-03T13:45:24;102956.70;;;9.01;37.77
77537;BME280;67783;51.656;16.106;2023-04-03T13:48:43;102953.05;;;9.03;36.95
77537;BME280;67783;51.656;16.106;2023-04-03T13:51:41;102951.66;;;9.19;38.34
77537;BME280;67783;51.656;16.106;2023-04-03T13:54:46;102949.16;;;9.15;37.54
77537;BME280;67783;51.656;16.106;2023-04-03T14:01:14;102952.04;;;9.07;38.36
77537;BME280;67783;51.656;16.106;2023-04-03T14:04:25;102954.17;;;8.96;38.27
77537;BME280;67783;51.656;16.106;2023-04-03T14:07:30;102960.51;;;8.94;37.30
77537;BME280;67783;51.656;16.106;2023-04-03T14:10:32;102947.94;;;8.96;38.60
77537;BME280;67783;51.656;16.106;2023-04-03T14:13:34;102952.34;;;8.98;38.38
77537;BME280;67783;51.656;16.106;2023-04-03T14:16:39;102956.23;;;9.16;38.81
77537;BME280;67783;51.656;16.106;2023-04-03T14:19:43;102949.82;;;9.21;38.45
77537;BME280;67783;51.656;16.106;2023-04-03T14:22:48;102954.51;;;9.15;36.96
77537;BME280;67783;51.656;16.106;2023-04-03T14:25:50;102956.62;;;9.04;38.69
77537;BME280;67783;51.656;16.106;2023-04-03T14:28:53;102950.48;;;9.00;37.64
77537;BME280;67783;51.656;16.106;2023-04-03T14:31:57;102963.95;;;8.97;38.72
77537;BME280;67783;51.656;16.106;2023-04-03T14:34:59;102956.95;;;8.93;38.31
77537;BME280;67783;51.656;16.106;2023-04-03T14:41:23;102961.72;;;8.82;38.44
77537;BME280;67783;51.656;16.106;2023-04-03T14:44:25;102948.41;;;8.80;38.23
77537;BME280;67783;51.656;16.106;2023-04-03T14:47:44;102960.16;;;8.75;36.56
77537;BME280;67783;51.656;16.106;2023-04-03T14:50:49;102956.90;;;8.65;38.87
77537;BME280;67783;51.656;16.106;2023-04-03T14:53:51;102947.48;;;8.52;38.71
77537;BME280;67783;51.656;16.106;2023-04-03T14:57:02;102954.20;;;8.34;36.43
77537;BME280;67783;51.656;16.106;2023-04-03T15:00:06;102947.25;;;8.27;38.70
77537;BME280;67783;51.656;16.106;2023-04-03T15:03:18;102956.12;;;8.29;37.59
77537;BME280;67783;51.656;16.106;2023-04-03T15:06:27;102948.77;;;8.38;36.64
77537;BME280;67783;51.656;16.106;2023-04-03T15:09:29;102943.82;;;8.55;38.57
77537;BME280;67783;51.656;16.106;2023-04-03T15:12:31;102933.77;;;8.63;37.80
77537;BME280;67783;51.656;16.106;2023-04-03T15:15:37;102940.99;;;8.61;37.30
77537;BME280;67783;51.656;16.106;2023-04-03T15:18:39;102948.16;;;8.59;38.08
77537;BME280;67783;51.656;16.106;2023-04-03T15:21:48;102940.11;;;8.60;35.88
77537;BME280;67783;51.656;16.106;2023-04-03T15:24:50;102933.01;;;8.59;38.05
77537;BME280;67783;51.656;16.106;2023-04-03T15:27:55;102932.21;;;8.56;37.27
77537;BME280;67783;51.656;16.106;2023-04-03T15:30:57;102927.65;;;8.59;38.22
77537;BME280;67783;51.656;16.106;2023-04-03T15:33:59;102933.88;;;8.60;38.11
77537;BME280;67783;51.656;16.106;2023-04-03T15:37:09;102926.91;;;8.54;36.14
77537;BME280;67783;51.656;16.106;2023-04-03T15:40:12;102926.02;;;8.54;38.40
77537;BME280;67783;51.656;16.106;2023-04-03T15:43:15;102932.31;;;8.53;37.88
77537;BME280;67783;51.656;16.106;2023-04-03T15:46:16;102926.09;;;8.52;38.68
77537;BME280;67783;51.656;16.106;2023-04-03T15:49:19;102926.09;;;8.52;38.30
77537;BME280;67783;51.656;16.106;2023-04-03T15:52:29;102924.31;;;8.51;36.36
77537;BME280;67783;51.656;16.106;2023-04-03T15:55:34;102929.70;;;8.50;38.28
77537;BME280;67783;51.656;16.106;2023-04-03T15:58:36;102920.97;;;8.45;37.79
77537;BME280;67783;51.656;16.106;2023-04-03T16:01:38;102927.38;;;8.38;38.20
77537;BME280;67783;51.656;16.106;2023-04-03T16:04:41;102925.80;;;8.30;38.05
77537;BME280;67783;51.656;16.106;2023-04-03T16:07:50;102932.94;;;8.28;36.51
77537;BME280;67783;51.656;16.106;2023-04-03T16:10:52;102926.69;;;8.31;38.48
77537;BME280;67783;51.656;16.106;2023-04-03T16:13:55;102933.01;;;8.27;37.87
77537;BME280;67783;51.656;16.106;2023-04-03T16:16:57;102934.74;;;8.29;38.92
77537;BME280;67783;51.656;16.106;2023-04-03T16:19:59;102934.01;;;8.23;38.39
77537;BME280;67783;51.656;16.106;2023-04-03T16:23:11;102937.68;;;8.19;37.64
77537;BME280;67783;51.656;16.106;2023-04-03T16:26:14;102937.74;;;8.16;39.21
77537;BME280;67783;51.656;16.106;2023-04-03T16:29:16;102939.69;;;8.11;38.80
77537;BME280;67783;51.656;16.106;2023-04-03T16:32:18;102938.91;;;8.07;39.25
77537;BME280;67783;51.656;16.106;2023-04-03T16:35:19;102944.48;;;7.98;39.14
77537;BME280;67783;51.656;16.106;2023-04-03T16:38:31;102936.70;;;7.89;37.81
77537;BME280;67783;51.656;16.106;2023-04-03T16:41:33;102948.52;;;7.79;38.74
77537;BME280;67783;51.656;16.106;2023-04-03T16:44:36;102948.81;;;7.68;38.28
77537;BME280;67783;51.656;16.106;2023-04-03T16:47:38;102948.83;;;7.67;39.07
77537;BME280;67783;51.656;16.106;2023-04-03T16:50:40;102948.09;;;7.62;39.08
77537;BME280;67783;51.656;16.106;2023-04-03T16:53:52;102949.00;;;7.61;37.71
77537;BME280;67783;51.656;16.106;2023-04-03T16:56:55;102953.47;;;7.60;39.50
77537;BME280;67783;51.656;16.106;2023-04-03T16:59:56;102958.05;;;7.54;39.06
77537;BME280;67783;51.656;16.106;2023-04-03T17:02:58;102954.56;;;7.52;39.70
77537;BME280;67783;51.656;16.106;2023-04-03T17:06:00;102959.20;;;7.43;39.42
77537;BME280;67783;51.656;16.106;2023-04-03T17:09:02;102954.95;;;7.36;39.84
77537;BME280;67783;51.656;16.106;2023-04-03T17:12:04;102963.09;;;7.29;39.69
77537;BME280;67783;51.656;16.106;2023-04-03T17:15:09;102958.88;;;7.20;38.82
77537;BME280;67783;51.656;16.106;2023-04-03T17:18:11;102959.89;;;7.15;40.01
77537;BME280;67783;51.656;16.106;2023-04-03T17:21:14;102966.23;;;7.09;39.79
77537;BME280;67783;51.656;16.106;2023-04-03T17:24:16;102964.52;;;7.07;40.23
77537;BME280;67783;51.656;16.106;2023-04-03T17:27:18;102964.61;;;7.02;40.03
77537;BME280;67783;51.656;16.106;2023-04-03T17:30:29;102967.31;;;7.01;39.00